Terminal Aerodrome Forecast
Issued by NWS

Home | Current Version | Previous Version | Text Only | Print | Product List | Glossary On
Versions: 1 2 3 4 5 6 7 8 9 10 11 12 13 14 15 16 17
000
FTUS41 KBTV 031729
TAFRUT
TAF
KRUT 031729Z 0318/0418 VRB05KT P6SM FEW080 SCT150
     FM032000 15009KT P6SM VCSH SCT035 OVC070
     FM040000 15012KT 2SM -SN BR SCT015 OVC025
     FM040800 19010KT P6SM VCSH SCT003 OVC010
     FM041000 21010KT P6SM SCT015 OVC035
     FM041300 25009KT P6SM SCT050 BKN100
      AMD LTD TO CLD VIS AND WIND=

USA.gov is the U.S. government's official web portal to all federal, state and local government web resources and services.